Time;durP1;ratioP1;P1;durP2;ratioP2;P2;SDS_P1;SDS_P2;PMS_P1;PMS_P2;Temp;Humidity;BMP_temperature;BMP_pressure;BME280_temperature;BME280_humidity;BME280_pressure;Samples;Min_cycle;Max_cycle;Signal;HPM_P1;HPM_P2
2023/03/05 00:01:37;;;;;;;10.15;2.67;;;5.30;99.90;;;;;;4910682;28;20072;-78
2023/03/05 00:04:03;;;;;;;11.43;2.08;;;4.60;99.90;;;;;;4902628;28;20026;-79
2023/03/05 00:06:29;;;;;;;6.38;1.90;;;4.70;99.90;;;;;;4919906;28;20483;-79
2023/03/05 00:08:57;;;;;;;14.05;2.38;;;4.70;99.90;;;;;;4911816;28;20039;-79
2023/03/05 00:11:23;;;;;;;7.97;1.83;;;4.60;99.90;;;;;;4913072;28;20043;-79
2023/03/05 00:13:51;;;;;;;11.07;2.17;;;4.60;99.90;;;;;;4895778;28;20043;-79
2023/03/05 00:16:17;;;;;;;15.25;2.80;;;4.60;99.90;;;;;;4934408;28;20058;-79
2023/03/05 00:18:43;;;;;;;10.82;2.17;;;4.50;99.90;;;;;;4911216;28;20500;-79
2023/03/05 00:21:22;;;;;;;19.80;2.45;;;4.50;99.90;;;;;;4915270;28;20035;-79
2023/03/05 00:23:49;;;;;;;9.63;2.65;;;4.50;99.90;;;;;;4921487;28;20027;-79
2023/03/05 00:26:15;;;;;;;6.90;1.80;;;4.60;99.90;;;;;;4919043;28;20043;-78
2023/03/05 00:28:41;;;;;;;15.65;2.40;;;4.70;99.90;;;;;;4932435;28;20035;-78
2023/03/05 00:31:06;;;;;;;12.25;2.75;;;4.60;99.90;;;;;;4897894;28;20035;-79
2023/03/05 00:33:32;;;;;;;8.80;1.92;;;4.50;99.90;;;;;;4914920;29;20062;-79
2023/03/05 00:36:00;;;;;;;5.70;1.65;;;4.40;99.90;;;;;;4904289;28;20468;-78
2023/03/05 00:38:26;;;;;;;14.73;2.00;;;4.50;99.90;;;;;;4900849;28;20170;-78
2023/03/05 00:40:51;;;;;;;8.32;1.75;;;4.50;99.90;;;;;;4899058;28;20122;-78
2023/03/05 00:43:17;;;;;;;7.63;2.22;;;4.50;99.90;;;;;;4906184;28;20039;-79
2023/03/05 00:45:42;;;;;;;9.10;2.03;;;4.40;99.90;;;;;;4896597;29;20183;-78
2023/03/05 00:48:08;;;;;;;9.70;1.65;;;4.40;99.90;;;;;;4901122;28;20038;-79
2023/03/05 00:50:33;;;;;;;6.07;1.33;;;4.40;99.90;;;;;;4911689;29;20046;-78
2023/03/05 00:52:59;;;;;;;8.75;1.90;;;4.50;99.90;;;;;;4912553;28;20035;-79
2023/03/05 00:55:25;;;;;;;9.43;2.17;;;4.40;99.90;;;;;;4904732;28;20487;-78
2023/03/05 00:57:50;;;;;;;10.00;2.17;;;4.50;99.90;;;;;;4915337;28;20071;-78
2023/03/05 01:00:16;;;;;;;8.85;2.08;;;4.40;99.90;;;;;;4904078;28;20443;-78
2023/03/05 01:02:42;;;;;;;8.52;1.83;;;4.40;99.90;;;;;;4928909;28;20044;-79
2023/03/05 01:05:11;;;;;;;9.40;3.00;;;4.40;99.90;;;;;;4914989;28;20422;-78
2023/03/05 01:07:36;;;;;;;10.18;2.03;;;4.30;99.90;;;;;;4927079;29;20039;-78
2023/03/05 01:10:02;;;;;;;6.68;1.42;;;4.30;99.90;;;;;;4915544;28;20035;-78
2023/03/05 01:12:28;;;;;;;13.55;1.92;;;4.30;99.90;;;;;;4928890;28;20086;-78
2023/03/05 01:14:53;;;;;;;10.93;1.88;;;4.20;99.90;;;;;;4898188;28;20480;-78
2023/03/05 01:17:19;;;;;;;9.00;2.08;;;4.20;99.90;;;;;;4900667;28;20040;-79
2023/03/05 01:19:44;;;;;;;4.90;1.77;;;4.30;99.90;;;;;;4928157;29;20028;-78
2023/03/05 01:22:10;;;;;;;6.05;1.50;;;4.20;99.90;;;;;;4952417;28;20046;-79
2023/03/05 01:24:35;;;;;;;9.55;1.85;;;4.20;99.90;;;;;;4930381;28;20031;-79
2023/03/05 01:27:01;;;;;;;6.07;2.05;;;4.20;99.90;;;;;;4933387;28;20023;-78
2023/03/05 01:29:27;;;;;;;8.82;1.30;;;4.10;99.90;;;;;;4912669;28;20114;-78
2023/03/05 01:31:52;;;;;;;7.38;2.25;;;4.20;99.90;;;;;;4893772;28;20024;-78
2023/03/05 01:34:18;;;;;;;7.13;2.05;;;4.20;99.90;;;;;;4904013;28;20070;-78
2023/03/05 01:36:43;;;;;;;7.65;2.05;;;4.10;99.90;;;;;;4905855;29;20087;-77
2023/03/05 01:39:09;;;;;;;7.32;2.42;;;4.10;99.90;;;;;;4929854;28;20089;-79
2023/03/05 01:41:34;;;;;;;10.55;2.28;;;4.10;99.90;;;;;;4910631;29;20051;-78
2023/03/05 01:44:00;;;;;;;9.27;1.45;;;4.10;99.90;;;;;;4907095;28;20039;-79
2023/03/05 01:46:39;;;;;;;11.32;1.90;;;4.20;99.90;;;;;;4921406;28;20557;-79
2023/03/05 01:49:27;;;;;;;11.95;2.00;;;4.10;99.90;;;;;;4896446;28;20031;-78
2023/03/05 01:51:59;;;;;;;9.77;2.05;;;4.10;99.90;;;;;;4897449;28;20051;-78
2023/03/05 01:54:27;;;;;;;10.13;1.48;;;4.10;99.90;;;;;;4935371;28;20091;-78
2023/03/05 01:56:54;;;;;;;9.60;1.83;;;4.10;99.90;;;;;;4901213;28;20091;-78
2023/03/05 01:59:19;;;;;;;9.93;1.80;;;4.10;99.90;;;;;;4918642;28;20046;-78
2023/03/05 02:01:46;;;;;;;4.57;1.17;;;4.00;99.90;;;;;;4900335;28;20492;-78
2023/03/05 02:04:14;;;;;;;1.63;0.80;;;4.10;99.90;;;;;;4897395;28;20546;-79
2023/03/05 02:06:40;;;;;;;4.00;1.67;;;4.10;99.90;;;;;;4910673;29;20079;-79
2023/03/05 02:09:05;;;;;;;5.43;1.10;;;4.10;99.90;;;;;;4895874;28;20555;-79
2023/03/05 02:11:31;;;;;;;2.25;1.10;;;4.10;99.90;;;;;;4917658;28;20130;-79
2023/03/05 02:13:57;;;;;;;1.17;0.77;;;4.10;99.90;;;;;;4933632;28;20713;-79
2023/03/05 02:16:22;;;;;;;4.25;0.95;;;4.10;99.90;;;;;;4908401;28;20035;-78
2023/03/05 02:18:49;;;;;;;7.88;0.95;;;4.00;99.90;;;;;;4911762;28;20067;-79
2023/03/05 02:21:16;;;;;;;5.00;1.05;;;4.00;99.90;;;;;;4909447;28;20069;-79
2023/03/05 02:23:41;;;;;;;1.48;0.70;;;4.10;99.90;;;;;;4913378;28;20056;-78
2023/03/05 02:26:08;;;;;;;5.07;0.93;;;4.00;99.90;;;;;;4903429;28;20042;-79
2023/03/05 02:28:36;;;;;;;3.47;1.15;;;4.00;99.90;;;;;;4906358;28;20043;-80
2023/03/05 02:31:07;;;;;;;1.83;0.73;;;4.00;99.90;;;;;;4906480;28;20399;-79
2023/03/05 02:33:33;;;;;;;4.07;0.75;;;4.00;99.90;;;;;;4928850;28;20106;-79
2023/03/05 02:35:58;;;;;;;4.25;0.85;;;4.00;99.90;;;;;;4907345;28;20031;-79
2023/03/05 02:38:24;;;;;;;1.92;0.73;;;4.00;99.90;;;;;;4912945;28;20035;-79
2023/03/05 02:40:49;;;;;;;5.40;0.80;;;4.00;99.90;;;;;;4896016;29;20098;-79
2023/03/05 02:43:15;;;;;;;6.28;0.70;;;4.00;99.90;;;;;;4895818;28;20043;-78
2023/03/05 02:45:41;;;;;;;9.38;0.98;;;3.90;99.90;;;;;;4927854;28;20094;-78
2023/03/05 02:48:06;;;;;;;3.53;0.90;;;4.00;99.90;;;;;;4911072;28;20049;-78
2023/03/05 02:50:32;;;;;;;3.08;1.08;;;4.00;99.90;;;;;;4910292;28;20537;-79
2023/03/05 02:52:58;;;;;;;4.30;1.48;;;3.90;99.90;;;;;;4900721;28;20063;-78
2023/03/05 02:55:24;;;;;;;6.15;1.60;;;3.90;99.90;;;;;;4895345;29;20118;-79
2023/03/05 02:57:49;;;;;;;7.13;1.80;;;3.90;99.90;;;;;;4894904;29;20031;-79
2023/03/05 03:00:15;;;;;;;2.97;1.20;;;3.90;99.90;;;;;;4916074;28;20101;-78
2023/03/05 03:02:41;;;;;;;6.85;1.65;;;3.80;99.90;;;;;;4928674;28;20031;-78
2023/03/05 03:05:07;;;;;;;8.27;2.20;;;3.80;99.90;;;;;;4912264;28;20450;-78
2023/03/05 03:07:34;;;;;;;3.75;1.67;;;3.80;99.90;;;;;;4909450;28;20546;-78
2023/03/05 03:10:00;;;;;;;9.00;2.03;;;3.80;99.90;;;;;;4930333;28;20467;-78
2023/03/05 03:12:26;;;;;;;7.07;1.55;;;3.90;99.90;;;;;;4902753;28;20035;-78
2023/03/05 03:14:51;;;;;;;11.10;1.67;;;3.90;99.90;;;;;;4933580;28;20397;-79
2023/03/05 03:17:17;;;;;;;5.47;1.38;;;3.90;99.90;;;;;;4924509;28;20030;-78
2023/03/05 03:19:43;;;;;;;13.15;3.15;;;3.80;99.90;;;;;;4896364;28;20059;-79
2023/03/05 03:22:09;;;;;;;10.98;1.80;;;3.90;99.90;;;;;;4910731;28;20467;-78
2023/03/05 03:24:35;;;;;;;8.50;1.65;;;3.80;99.90;;;;;;4910307;28;20039;-78
2023/03/05 03:27:01;;;;;;;7.65;3.00;;;3.70;99.90;;;;;;4911473;28;20482;-79
2023/03/05 03:29:26;;;;;;;9.10;2.55;;;3.80;99.90;;;;;;4894631;28;20035;-78
2023/03/05 03:31:52;;;;;;;8.40;2.15;;;3.70;99.90;;;;;;4903012;28;20031;-78
2023/03/05 03:34:17;;;;;;;8.27;2.72;;;3.70;99.90;;;;;;4913202;28;20121;-79
2023/03/05 03:36:44;;;;;;;3.35;1.38;;;3.70;99.90;;;;;;4921590;29;20504;-79
2023/03/05 03:39:09;;;;;;;7.82;1.75;;;3.60;99.90;;;;;;4935779;28;20101;-78
2023/03/05 03:41:36;;;;;;;6.80;2.25;;;3.70;99.90;;;;;;4898172;28;20495;-79
2023/03/05 03:44:03;;;;;;;7.07;2.45;;;3.70;99.90;;;;;;4895274;28;20769;-78
2023/03/05 03:46:29;;;;;;;6.65;1.85;;;3.70;99.90;;;;;;4910961;29;20038;-78
2023/03/05 03:48:54;;;;;;;10.38;2.40;;;3.60;99.90;;;;;;4911997;28;20114;-78
2023/03/05 03:51:20;;;;;;;14.52;2.78;;;3.50;99.90;;;;;;4915044;28;20043;-78
2023/03/05 03:53:46;;;;;;;11.18;2.20;;;3.60;99.90;;;;;;4910549;29;20055;-79
2023/03/05 03:56:11;;;;;;;8.57;2.15;;;3.60;99.90;;;;;;4919430;28;20043;-77
2023/03/05 03:58:37;;;;;;;13.10;2.83;;;3.50;99.90;;;;;;4916502;29;20036;-76
2023/03/05 04:01:02;;;;;;;10.18;2.28;;;3.50;99.90;;;;;;4912484;28;20032;-77
2023/03/05 04:03:28;;;;;;;11.40;2.13;;;3.60;99.90;;;;;;4898866;28;20035;-77
2023/03/05 04:05:53;;;;;;;11.43;2.03;;;3.50;99.90;;;;;;4902359;29;20483;-77
2023/03/05 04:08:19;;;;;;;5.68;1.17;;;3.50;99.90;;;;;;4913482;28;20151;-76
2023/03/05 04:10:45;;;;;;;7.38;2.75;;;3.60;99.90;;;;;;4911625;28;20031;-77
2023/03/05 04:13:10;;;;;;;6.55;1.75;;;3.60;99.90;;;;;;4921490;28;20027;-77
2023/03/05 04:15:36;;;;;;;15.50;2.70;;;3.60;99.90;;;;;;4930012;29;20126;-77
2023/03/05 04:18:01;;;;;;;6.10;1.60;;;3.50;99.90;;;;;;4918810;28;20126;-77
2023/03/05 04:20:27;;;;;;;11.48;3.22;;;3.50;99.90;;;;;;4916494;28;20503;-77
2023/03/05 04:22:52;;;;;;;8.98;2.63;;;3.40;99.90;;;;;;4912459;28;20101;-76
2023/03/05 04:25:18;;;;;;;9.68;3.33;;;3.40;99.90;;;;;;4918613;28;20111;-77
2023/03/05 04:27:43;;;;;;;12.95;3.30;;;3.40;99.90;;;;;;4905502;28;20494;-77
2023/03/05 04:30:10;;;;;;;3.65;1.60;;;3.50;99.90;;;;;;4931944;28;20027;-76
2023/03/05 04:32:36;;;;;;;8.77;2.85;;;3.50;99.90;;;;;;4898565;28;20035;-77
2023/03/05 04:35:02;;;;;;;13.95;3.50;;;3.50;99.90;;;;;;4894415;28;20090;-77
2023/03/05 04:37:27;;;;;;;23.23;7.85;;;3.60;99.90;;;;;;4904594;28;20042;-77
2023/03/05 04:39:53;;;;;;;20.65;8.60;;;3.50;99.90;;;;;;4900501;28;20042;-77
2023/03/05 04:42:19;;;;;;;9.57;3.63;;;3.50;99.90;;;;;;4905344;28;20032;-77
2023/03/05 04:44:47;;;;;;;14.25;4.03;;;3.50;99.90;;;;;;4913131;29;20047;-76
2023/03/05 04:47:12;;;;;;;21.85;8.95;;;3.50;99.90;;;;;;4916240;28;20031;-77
2023/03/05 04:49:38;;;;;;;12.52;6.88;;;3.50;99.90;;;;;;4917145;28;20606;-76
2023/03/05 04:52:03;;;;;;;10.27;2.67;;;3.50;99.90;;;;;;4940417;28;20045;-76
2023/03/05 04:54:29;;;;;;;9.88;3.85;;;3.40;99.90;;;;;;4901249;28;20043;-77
2023/03/05 04:56:54;;;;;;;15.55;4.90;;;3.50;99.90;;;;;;4928750;28;20036;-77
2023/03/05 04:59:20;;;;;;;12.95;5.97;;;3.50;99.90;;;;;;4901657;28;20066;-77
2023/03/05 05:01:45;;;;;;;9.98;5.05;;;3.50;99.90;;;;;;4922746;28;20050;-77
2023/03/05 05:04:11;;;;;;;10.18;4.10;;;3.40;99.90;;;;;;4928039;29;20028;-76
2023/03/05 05:06:36;;;;;;;13.88;6.05;;;3.50;99.90;;;;;;4932187;28;20039;-77
2023/03/05 05:09:03;;;;;;;9.40;5.95;;;3.50;99.90;;;;;;4904033;28;20058;-77
2023/03/05 05:11:29;;;;;;;13.25;5.63;;;3.50;99.90;;;;;;4925098;29;20040;-78
2023/03/05 05:13:54;;;;;;;6.63;2.80;;;3.60;99.90;;;;;;4912948;28;20048;-76
2023/03/05 05:16:20;;;;;;;13.35;4.68;;;3.50;99.90;;;;;;4921232;28;20221;-76
2023/03/05 05:18:45;;;;;;;14.23;6.43;;;3.60;99.90;;;;;;4937376;28;20038;-76
2023/03/05 05:21:12;;;;;;;10.15;5.05;;;3.60;99.90;;;;;;4932686;28;20071;-76
2023/03/05 05:23:37;;;;;;;13.98;5.80;;;3.60;99.90;;;;;;4913299;28;20034;-76
2023/03/05 05:26:05;;;;;;;7.40;3.67;;;3.50;99.90;;;;;;4900119;28;20039;-76
2023/03/05 05:28:30;;;;;;;8.70;4.57;;;3.50;99.90;;;;;;4908913;28;20177;-76
2023/03/05 05:30:56;;;;;;;11.35;4.80;;;3.50;99.90;;;;;;4897293;29;20114;-76
2023/03/05 05:33:22;;;;;;;10.85;3.17;;;3.50;99.90;;;;;;4901018;29;20505;-76
2023/03/05 05:35:47;;;;;;;14.35;4.72;;;3.60;99.90;;;;;;4902306;28;20067;-75
2023/03/05 05:38:13;;;;;;;8.02;4.47;;;3.50;99.90;;;;;;4918144;28;20031;-76
2023/03/05 05:40:40;;;;;;;10.85;4.35;;;3.40;99.90;;;;;;4932003;28;20081;-75
2023/03/05 05:43:05;;;;;;;9.18;3.85;;;3.30;99.90;;;;;;4903219;28;20038;-76
2023/03/05 05:45:31;;;;;;;10.77;3.83;;;3.30;99.90;;;;;;4903767;28;20046;-77
2023/03/05 05:47:57;;;;;;;18.27;3.92;;;3.40;99.90;;;;;;4931503;28;20023;-76
2023/03/05 05:50:22;;;;;;;9.25;3.63;;;3.30;99.90;;;;;;4904542;28;20031;-76
2023/03/05 05:52:49;;;;;;;9.45;3.67;;;3.30;99.90;;;;;;4934219;28;20039;-76
2023/03/05 05:55:15;;;;;;;9.65;3.42;;;3.40;99.90;;;;;;4899818;29;20031;-76
2023/03/05 05:57:40;;;;;;;8.63;3.35;;;3.40;99.90;;;;;;4919887;29;20035;-76
2023/03/05 06:00:09;;;;;;;11.05;4.25;;;3.40;99.90;;;;;;4900499;28;20036;-76
2023/03/05 06:02:37;;;;;;;9.52;3.05;;;3.40;99.90;;;;;;4916857;28;20090;-76
2023/03/05 06:05:03;;;;;;;8.57;3.25;;;3.40;99.90;;;;;;4911642;28;20023;-75
2023/03/05 06:07:30;;;;;;;8.80;3.33;;;3.50;99.90;;;;;;4908537;28;20094;-76
2023/03/05 06:09:56;;;;;;;5.72;2.30;;;3.40;99.90;;;;;;4903620;28;20032;-76
2023/03/05 06:12:21;;;;;;;5.85;2.58;;;3.40;99.90;;;;;;4936546;28;20095;-75
2023/03/05 06:14:47;;;;;;;6.60;2.70;;;3.50;99.90;;;;;;4902460;28;20028;-75
2023/03/05 06:17:13;;;;;;;10.77;3.05;;;3.40;99.90;;;;;;4920709;28;20082;-75
2023/03/05 06:19:38;;;;;;;7.53;2.70;;;3.40;99.90;;;;;;4905678;29;20119;-76
2023/03/05 06:22:04;;;;;;;14.02;2.72;;;3.40;99.90;;;;;;4932197;28;20035;-75
2023/03/05 06:24:29;;;;;;;9.90;3.78;;;3.50;99.90;;;;;;4935151;28;20059;-76
2023/03/05 06:26:55;;;;;;;7.90;2.55;;;3.50;99.90;;;;;;4898398;28;20183;-76
2023/03/05 06:29:20;;;;;;;10.73;2.92;;;3.50;99.90;;;;;;4904400;28;20448;-76
2023/03/05 06:31:46;;;;;;;6.80;2.17;;;3.50;99.90;;;;;;4908409;29;20107;-76
2023/03/05 06:34:12;;;;;;;9.45;2.58;;;3.50;99.90;;;;;;4911112;28;20477;-76
2023/03/05 06:36:38;;;;;;;5.78;2.13;;;3.50;99.90;;;;;;4899722;29;20456;-76
2023/03/05 06:39:04;;;;;;;8.45;2.20;;;3.50;99.90;;;;;;4909017;28;20431;-76
2023/03/05 06:41:30;;;;;;;11.32;2.45;;;3.50;99.90;;;;;;4909772;28;20895;-76
2023/03/05 06:43:55;;;;;;;8.90;2.42;;;3.50;99.90;;;;;;4909338;28;20067;-76
2023/03/05 06:46:25;;;;;;;5.55;1.85;;;3.50;99.90;;;;;;4919056;28;20619;-75
2023/03/05 06:48:51;;;;;;;5.72;2.20;;;3.60;99.90;;;;;;4928648;28;20123;-76
2023/03/05 06:51:21;;;;;;;8.05;2.33;;;3.60;99.90;;;;;;4898885;28;20500;-76
2023/03/05 06:53:47;;;;;;;6.13;2.38;;;3.60;99.90;;;;;;4916167;28;20043;-76
2023/03/05 06:56:15;;;;;;;7.70;2.35;;;3.60;99.90;;;;;;4930066;28;20031;-76
2023/03/05 06:58:41;;;;;;;7.07;2.10;;;3.60;99.90;;;;;;4915062;28;20099;-76
2023/03/05 07:01:07;;;;;;;3.05;1.42;;;3.60;99.90;;;;;;4910932;28;20503;-75
2023/03/05 07:03:33;;;;;;;13.75;2.20;;;3.60;99.90;;;;;;4910488;28;20066;-76
2023/03/05 07:06:05;;;;;;;8.05;2.17;;;3.70;99.90;;;;;;4908621;28;20457;-76
2023/03/05 07:08:31;;;;;;;4.00;1.60;;;3.70;99.90;;;;;;4894601;28;20093;-77
2023/03/05 07:10:56;;;;;;;9.38;1.25;;;3.80;99.90;;;;;;4898520;28;20031;-76
2023/03/05 07:13:22;;;;;;;5.93;2.30;;;3.80;99.90;;;;;;4922987;28;20046;-76
2023/03/05 07:15:47;;;;;;;7.45;2.70;;;3.80;99.90;;;;;;4909967;28;20821;-77
2023/03/05 07:18:13;;;;;;;5.45;1.10;;;3.80;99.90;;;;;;4912889;28;20031;-76
2023/03/05 07:20:39;;;;;;;11.50;2.30;;;3.90;99.90;;;;;;4910870;28;20079;-76
2023/03/05 07:23:04;;;;;;;9.05;2.20;;;3.90;99.90;;;;;;4898152;28;20042;-77
2023/03/05 07:25:30;;;;;;;10.38;2.30;;;3.90;99.90;;;;;;4900353;28;20039;-76
2023/03/05 07:27:55;;;;;;;3.55;1.95;;;3.90;99.90;;;;;;4901576;28;20483;-76
2023/03/05 07:30:21;;;;;;;7.30;2.00;;;3.90;99.90;;;;;;4897538;28;20043;-76
2023/03/05 07:32:47;;;;;;;7.25;1.67;;;3.90;99.90;;;;;;4925569;29;20171;-76
2023/03/05 07:35:12;;;;;;;11.48;3.17;;;3.90;99.90;;;;;;4916620;28;20059;-76
2023/03/05 07:37:38;;;;;;;13.48;4.47;;;4.00;99.90;;;;;;4897188;28;20044;-76
2023/03/05 07:40:04;;;;;;;8.00;2.72;;;3.90;99.90;;;;;;4895893;28;20043;-76
2023/03/05 07:42:30;;;;;;;9.07;3.00;;;4.00;99.90;;;;;;4908578;28;20133;-76
2023/03/05 07:44:55;;;;;;;14.35;4.82;;;4.10;99.90;;;;;;4898454;28;20040;-77
2023/03/05 07:47:22;;;;;;;20.88;6.50;;;4.20;99.90;;;;;;4899446;28;20102;-76
2023/03/05 07:49:48;;;;;;;12.07;3.80;;;4.20;99.90;;;;;;4917268;28;20040;-76
2023/03/05 07:52:13;;;;;;;10.40;4.70;;;4.30;99.90;;;;;;4941200;28;20034;-77
2023/03/05 07:54:39;;;;;;;18.73;6.22;;;4.40;99.90;;;;;;4893141;28;20278;-76
2023/03/05 07:57:05;;;;;;;9.88;2.60;;;4.50;99.90;;;;;;4895088;28;20031;-76
2023/03/05 07:59:31;;;;;;;16.48;4.50;;;4.50;99.90;;;;;;4917512;28;20512;-76
2023/03/05 08:01:57;;;;;;;11.25;3.08;;;4.60;99.90;;;;;;4928218;28;20067;-77
2023/03/05 08:04:22;;;;;;;8.23;3.83;;;4.60;99.90;;;;;;4899527;28;20043;-76
2023/03/05 08:06:48;;;;;;;6.93;3.53;;;4.60;99.90;;;;;;4929261;28;20055;-76
2023/03/05 08:09:15;;;;;;;10.57;3.60;;;4.70;99.90;;;;;;4918966;28;20034;-76
2023/03/05 08:11:40;;;;;;;9.82;3.10;;;4.70;99.90;;;;;;4907039;28;20538;-75
2023/03/05 08:14:06;;;;;;;9.65;3.45;;;4.80;99.90;;;;;;4896735;28;20039;-77
2023/03/05 08:16:31;;;;;;;8.50;4.15;;;4.80;99.90;;;;;;4895114;28;20128;-76
2023/03/05 08:18:57;;;;;;;8.68;3.33;;;4.80;99.90;;;;;;4897425;28;20028;-76
2023/03/05 08:21:32;;;;;;;10.63;4.78;;;4.80;99.90;;;;;;4905549;28;20467;-75
2023/03/05 08:23:58;;;;;;;11.70;3.90;;;4.80;99.90;;;;;;4911300;28;20066;-77
2023/03/05 08:26:25;;;;;;;9.30;3.97;;;4.80;99.90;;;;;;4899033;28;20046;-76
2023/03/05 08:28:50;;;;;;;11.30;4.65;;;4.70;99.90;;;;;;4900673;28;20035;-77
2023/03/05 08:31:17;;;;;;;9.10;4.20;;;4.70;99.90;;;;;;4911128;28;20038;-77
2023/03/05 08:33:42;;;;;;;9.10;5.25;;;4.70;99.90;;;;;;4897454;29;20082;-76
2023/03/05 08:36:08;;;;;;;13.38;5.82;;;4.60;99.90;;;;;;4903249;28;20058;-77
2023/03/05 08:38:34;;;;;;;15.73;7.65;;;4.70;99.90;;;;;;4910720;28;21103;-77
2023/03/05 08:41:00;;;;;;;16.73;7.90;;;4.60;99.90;;;;;;4919023;28;20073;-76
2023/03/05 08:43:25;;;;;;;20.60;9.68;;;4.60;99.90;;;;;;4924515;28;20545;-77
2023/03/05 08:45:52;;;;;;;20.83;10.48;;;4.50;99.90;;;;;;4918102;28;20066;-76
2023/03/05 08:48:18;;;;;;;18.20;7.57;;;4.50;99.90;;;;;;4936709;28;20032;-77
2023/03/05 08:50:44;;;;;;;20.77;10.55;;;4.50;99.90;;;;;;4897751;29;20048;-76
2023/03/05 08:53:09;;;;;;;21.73;11.25;;;4.80;99.90;;;;;;4921340;28;20054;-77
2023/03/05 08:55:36;;;;;;;13.25;7.30;;;4.40;99.90;;;;;;4924408;28;20126;-77
2023/03/05 08:58:01;;;;;;;16.67;8.43;;;4.30;99.90;;;;;;4911107;28;20480;-76
2023/03/05 09:00:27;;;;;;;10.60;5.68;;;4.40;99.90;;;;;;4911519;28;20101;-77
2023/03/05 09:02:53;;;;;;;12.20;6.32;;;4.40;99.90;;;;;;4903693;28;20039;-76
2023/03/05 09:05:18;;;;;;;13.15;6.30;;;4.40;99.90;;;;;;4902924;28;20160;-77
2023/03/05 09:07:44;;;;;;;23.98;11.45;;;4.40;99.90;;;;;;4923965;28;20046;-77
2023/03/05 09:10:12;;;;;;;17.38;9.52;;;4.40;99.90;;;;;;4918735;28;20062;-77
2023/03/05 09:12:38;;;;;;;27.10;11.27;;;4.40;99.90;;;;;;4912569;28;20043;-77
2023/03/05 09:15:07;;;;;;;19.38;9.32;;;4.40;99.90;;;;;;4911930;29;20032;-77
2023/03/05 09:17:34;;;;;;;17.85;10.75;;;4.40;99.90;;;;;;4902813;28;20158;-77
2023/03/05 09:20:00;;;;;;;29.48;15.55;;;4.40;99.90;;;;;;4915465;28;20024;-77
2023/03/05 09:22:25;;;;;;;23.35;12.23;;;4.40;99.90;;;;;;4928183;28;20031;-77
2023/03/05 09:24:51;;;;;;;20.38;13.50;;;4.40;99.90;;;;;;4948528;28;20027;-78
2023/03/05 09:27:16;;;;;;;32.70;19.02;;;4.40;99.90;;;;;;4929768;28;20038;-78
2023/03/05 09:29:42;;;;;;;28.77;16.23;;;4.40;99.90;;;;;;4922770;28;20042;-78
2023/03/05 09:32:07;;;;;;;30.73;17.75;;;4.40;99.90;;;;;;4919281;28;20027;-77
2023/03/05 09:34:33;;;;;;;32.13;17.60;;;4.40;99.90;;;;;;4931855;28;20098;-77
2023/03/05 09:36:59;;;;;;;24.70;15.90;;;4.40;99.90;;;;;;4937225;28;20074;-77
2023/03/05 09:39:24;;;;;;;29.13;18.50;;;4.40;99.90;;;;;;4923285;28;20034;-76
2023/03/05 09:41:57;;;;;;;30.60;17.88;;;4.40;99.90;;;;;;4923228;28;20447;-76
2023/03/05 09:44:46;;;;;;;39.17;22.05;;;4.30;99.90;;;;;;4932811;28;20040;-77
2023/03/05 09:47:24;;;;;;;28.00;17.75;;;4.30;99.90;;;;;;4948360;28;20113;-77
2023/03/05 09:50:06;;;;;;;29.77;16.83;;;4.30;99.90;;;;;;4930601;28;20028;-77
2023/03/05 09:52:40;;;;;;;27.13;15.18;;;4.30;99.90;;;;;;4926061;28;20038;-77
2023/03/05 09:55:22;;;;;;;36.92;20.38;;;4.40;99.90;;;;;;4927152;28;20075;-76
2023/03/05 09:57:50;;;;;;;39.38;20.23;;;4.40;99.90;;;;;;4949980;28;20036;-75
2023/03/05 10:00:43;;;;;;;29.73;17.55;;;4.50;99.90;;;;;;4895385;28;20031;-76
2023/03/05 10:03:31;;;;;;;33.38;18.20;;;4.60;99.90;;;;;;4929144;28;20023;-77
2023/03/05 10:06:11;;;;;;;48.40;26.38;;;4.60;99.90;;;;;;4924369;28;20191;-78
2023/03/05 10:09:08;;;;;;;45.10;23.48;;;4.80;99.90;;;;;;4923425;28;20038;-79
2023/03/05 10:11:48;;;;;;;35.78;20.63;;;4.90;99.90;;;;;;4949766;28;20534;-77
2023/03/05 10:14:30;;;;;;;32.25;18.88;;;5.00;99.90;;;;;;4948547;28;20495;-78
2023/03/05 10:17:01;;;;;;;34.97;18.77;;;5.20;99.90;;;;;;4924065;28;20669;-78
2023/03/05 10:19:36;;;;;;;29.77;16.25;;;5.30;99.90;;;;;;4938108;28;20510;-78
2023/03/05 10:22:08;;;;;;;30.52;15.50;;;5.20;99.90;;;;;;4937623;28;20123;-77
2023/03/05 10:24:42;;;;;;;32.15;19.55;;;5.60;99.90;;;;;;4926970;28;20071;-77
2023/03/05 10:27:11;;;;;;;32.33;18.98;;;5.80;99.90;;;;;;4939312;28;20034;-77
2023/03/05 10:30:07;;;;;;;33.50;17.05;;;5.90;99.90;;;;;;4923526;28;20036;-78
2023/03/05 10:33:03;;;;;;;24.77;13.10;;;6.10;99.90;;;;;;4943033;28;20055;-76
2023/03/05 10:36:07;;;;;;;24.52;13.98;;;6.20;99.90;;;;;;4944467;28;20030;-77
2023/03/05 10:38:53;;;;;;;35.03;19.70;;;6.40;99.90;;;;;;4945601;28;20515;-76
2023/03/05 10:41:40;;;;;;;31.02;19.73;;;6.60;99.90;;;;;;4941087;28;20574;-79
2023/03/05 10:44:25;;;;;;;38.75;22.05;;;6.70;99.90;;;;;;4928953;28;20038;-77
2023/03/05 10:46:51;;;;;;;27.23;16.10;;;6.70;99.90;;;;;;4930266;28;20038;-76
2023/03/05 10:49:25;;;;;;;26.83;16.50;;;6.70;99.90;;;;;;4925052;28;20110;-77
2023/03/05 10:51:57;;;;;;;21.33;11.48;;;6.60;99.90;;;;;;4916340;28;20397;-77
2023/03/05 10:54:30;;;;;;;29.98;15.45;;;6.50;99.90;;;;;;4912723;28;20043;-77
2023/03/05 10:57:25;;;;;;;21.15;14.77;;;6.60;99.90;;;;;;4928163;28;20032;-76
2023/03/05 11:00:12;;;;;;;27.42;15.63;;;6.60;99.90;;;;;;4928096;28;20040;-77
2023/03/05 11:02:55;;;;;;;;;;;6.70;99.90;;;;;;4910953;28;20115;-77
2023/03/05 11:05:43;;;;;;;22.08;11.68;;;6.70;99.90;;;;;;4951086;28;19910;-77
2023/03/05 11:08:29;;;;;;;16.58;9.30;;;6.60;99.90;;;;;;4940669;28;20427;-76
2023/03/05 11:11:09;;;;;;;11.25;7.35;;;6.40;99.90;;;;;;4942106;28;20541;-76
2023/03/05 11:13:48;;;;;;;9.70;6.35;;;6.20;99.90;;;;;;4916718;29;20059;-77
2023/03/05 11:16:29;;;;;;;10.30;6.47;;;6.20;99.90;;;;;;4906791;28;20039;-77
2023/03/05 11:19:13;;;;;;;7.50;3.92;;;6.20;99.90;;;;;;4899050;28;20030;-78
2023/03/05 11:21:39;;;;;;;4.18;2.08;;;6.10;99.90;;;;;;4937153;28;20101;-77
2023/03/05 11:24:17;;;;;;;2.70;2.00;;;6.00;99.90;;;;;;4907378;28;20142;-77
2023/03/05 11:26:47;;;;;;;5.20;2.72;;;6.00;99.90;;;;;;4917460;28;20039;-77
2023/03/05 11:29:17;;;;;;;5.93;1.30;;;5.90;99.90;;;;;;4897525;28;20031;-77
2023/03/05 11:31:45;;;;;;;1.42;0.70;;;5.90;99.90;;;;;;4909567;28;20496;-76
2023/03/05 11:34:17;;;;;;;3.85;1.10;;;5.90;99.90;;;;;;4907931;28;20031;-77
2023/03/05 11:36:57;;;;;;;1.85;1.00;;;6.00;99.90;;;;;;4925551;28;20031;-77
2023/03/05 11:39:29;;;;;;;4.25;2.30;;;6.00;99.90;;;;;;4948560;28;20038;-77
2023/03/05 11:42:02;;;;;;;2.80;1.50;;;6.00;99.90;;;;;;4909765;28;20102;-77
2023/03/05 11:44:47;;;;;;;2.33;1.10;;;6.10;99.90;;;;;;4907181;29;20392;-76
2023/03/05 11:47:28;;;;;;;4.17;1.00;;;6.20;99.90;;;;;;4927492;28;20035;-76
2023/03/05 11:50:20;;;;;;;2.92;1.70;;;6.30;99.90;;;;;;4930534;28;20107;-77
2023/03/05 11:52:48;;;;;;;4.43;1.30;;;6.40;99.90;;;;;;4914836;28;20083;-76
2023/03/05 11:55:21;;;;;;;1.88;1.52;;;6.50;99.90;;;;;;4914162;28;20114;-77
2023/03/05 11:58:23;;;;;;;4.50;2.22;;;6.70;99.90;;;;;;4903084;28;20676;-76
2023/03/05 12:00:49;;;;;;;3.72;2.00;;;6.80;99.90;;;;;;4927939;28;20036;-75
2023/03/05 12:03:23;;;;;;;2.47;1.45;;;6.90;99.90;;;;;;4222495;28;10000537;-76
2023/03/05 12:05:55;;;;;;;4.50;1.40;;;7.10;99.90;;;;;;4892280;28;20040;-77
2023/03/05 12:08:24;;;;;;;4.65;2.13;;;7.30;99.90;;;;;;4895771;28;20031;-76
2023/03/05 12:10:50;;;;;;;4.63;1.73;;;7.40;99.90;;;;;;4916262;28;20452;-76
2023/03/05 12:13:25;;;;;;;2.60;1.80;;;7.50;99.90;;;;;;4920137;28;20089;-76
2023/03/05 12:16:09;;;;;;;5.05;1.95;;;7.70;99.90;;;;;;4941581;28;20027;-77
2023/03/05 12:19:10;;;;;;;5.80;2.88;;;7.90;99.90;;;;;;4933857;28;20055;-77
2023/03/05 12:21:36;;;;;;;3.85;3.08;;;8.10;99.90;;;;;;4907611;28;20312;-77
2023/03/05 12:24:22;;;;;;;6.22;3.28;;;8.30;99.90;;;;;;4908919;29;20460;-76
2023/03/05 12:27:03;;;;;;;8.80;4.85;;;8.40;99.90;;;;;;4933400;28;20545;-78
2023/03/05 12:29:31;;;;;;;9.93;5.07;;;8.40;99.90;;;;;;4942923;28;20038;-78
2023/03/05 12:31:58;;;;;;;7.50;5.28;;;8.50;99.90;;;;;;4940800;28;20094;-79
2023/03/05 12:34:35;;;;;;;9.50;6.22;;;8.60;99.90;;;;;;4896001;28;20578;-79
2023/03/05 12:37:01;;;;;;;6.65;3.67;;;8.60;99.90;;;;;;4917790;28;20551;-79
2023/03/05 12:39:40;;;;;;;8.63;5.40;;;8.70;99.90;;;;;;4911909;28;20121;-78
2023/03/05 12:42:32;;;;;;;7.45;4.93;;;8.70;99.90;;;;;;4918870;28;20047;-78
2023/03/05 12:45:15;;;;;;;8.00;4.63;;;8.60;99.90;;;;;;4930470;28;20592;-77
2023/03/05 12:47:47;;;;;;;7.63;5.00;;;8.60;99.90;;;;;;4934073;28;20044;-78
2023/03/05 12:50:50;;;;;;;8.57;4.45;;;8.70;99.90;;;;;;4914274;28;20483;-79
2023/03/05 12:53:17;;;;;;;7.15;3.70;;;8.70;99.90;;;;;;4921287;28;20063;-79
2023/03/05 12:56:09;;;;;;;5.93;4.03;;;8.70;99.90;;;;;;4917331;28;20087;-79
2023/03/05 12:58:47;;;;;;;8.25;4.55;;;8.80;99.90;;;;;;4943208;28;20062;-79
2023/03/05 13:01:44;;;;;;;7.57;5.28;;;8.80;99.90;;;;;;4925247;28;20518;-79